Time;durP1;ratioP1;P1;durP2;ratioP2;P2;SDS_P1;SDS_P2;PMS_P1;PMS_P2;Temp;Humidity;BMP_temperature;BMP_pressure;BME280_temperature;BME280_humidity;BME280_pressure;Samples;Min_cycle;Max_cycle;Signal;HPM_P1;HPM_P2
2022/07/05 00:03:43;;;;;;;3.58;0.90;;;16.70;99.90;;;;;;12478717;28;20038;-34
2022/07/05 00:09:48;;;;;;;2.88;0.98;;;16.70;99.90;;;;;;12482062;28;20639;-34
2022/07/05 00:15:52;;;;;;;1.83;0.80;;;16.50;99.90;;;;;;12476765;28;20507;-35
2022/07/05 00:21:54;;;;;;;3.60;0.90;;;16.50;99.90;;;;;;12480844;28;20056;-38
2022/07/05 00:27:55;;;;;;;5.30;0.90;;;16.50;99.90;;;;;;12476885;28;20054;-34
2022/07/05 00:33:57;;;;;;;5.47;0.90;;;16.50;99.90;;;;;;12478263;28;20041;-34
2022/07/05 00:39:59;;;;;;;2.53;1.08;;;16.60;99.90;;;;;;12483098;28;20064;-34
2022/07/05 00:46:01;;;;;;;2.55;0.90;;;16.40;99.90;;;;;;12479694;28;20087;-38
2022/07/05 00:52:04;;;;;;;1.60;0.85;;;16.30;99.90;;;;;;12476481;28;20049;-35
2022/07/05 00:58:22;;;;;;;4.30;0.80;;;16.40;99.90;;;;;;12485412;28;20046;-34
2022/07/05 01:04:24;;;;;;;2.00;0.80;;;16.40;99.90;;;;;;12481730;28;20048;-35
2022/07/05 01:10:27;;;;;;;7.40;1.50;;;16.30;99.90;;;;;;12486005;28;20046;-34
2022/07/05 01:16:29;;;;;;;1.63;1.00;;;16.30;99.90;;;;;;12483567;28;20050;-34
2022/07/05 01:22:56;;;;;;;6.63;1.08;;;16.20;99.90;;;;;;12481023;28;20120;-38
2022/07/05 01:28:58;;;;;;;2.45;1.08;;;16.20;99.90;;;;;;12473102;28;20053;-38
2022/07/05 01:35:00;;;;;;;1.83;0.90;;;16.10;99.90;;;;;;12485903;28;20079;-34
2022/07/05 01:41:02;;;;;;;4.90;1.30;;;16.10;99.90;;;;;;12473666;28;20128;-34
2022/07/05 01:47:06;;;;;;;1.77;1.02;;;16.10;99.90;;;;;;12484949;28;20079;-35
2022/07/05 01:53:14;;;;;;;1.80;0.90;;;15.80;99.90;;;;;;12478284;28;20106;-34
2022/07/05 01:59:15;;;;;;;2.55;1.00;;;15.90;99.90;;;;;;12472510;28;20473;-34
2022/07/05 02:05:17;;;;;;;2.42;1.02;;;15.70;99.90;;;;;;12470186;28;20048;-38
2022/07/05 02:11:19;;;;;;;4.05;1.00;;;15.80;99.90;;;;;;12482608;28;20421;-35
2022/07/05 02:17:21;;;;;;;3.58;1.02;;;15.80;99.90;;;;;;12477706;28;20106;-38
2022/07/05 02:23:22;;;;;;;3.83;1.20;;;15.90;99.90;;;;;;12477514;28;20054;-38
2022/07/05 02:29:24;;;;;;;2.90;1.10;;;15.90;99.90;;;;;;12481155;28;20057;-35
2022/07/05 02:35:26;;;;;;;1.90;1.05;;;16.00;99.90;;;;;;12475051;28;20120;-38
2022/07/05 02:41:28;;;;;;;4.55;1.00;;;15.90;99.90;;;;;;12478323;28;20041;-34
2022/07/05 02:47:30;;;;;;;3.78;0.93;;;15.90;99.90;;;;;;12475147;28;20140;-38
2022/07/05 02:53:34;;;;;;;1.80;1.10;;;15.90;99.90;;;;;;12481685;28;20130;-35
2022/07/05 02:59:35;;;;;;;2.30;1.00;;;15.90;99.90;;;;;;12476784;28;20117;-35
2022/07/05 03:05:37;;;;;;;3.60;0.90;;;15.90;99.90;;;;;;12476673;28;20122;-35
2022/07/05 03:11:39;;;;;;;1.77;0.80;;;15.70;99.90;;;;;;12469824;28;20045;-38
2022/07/05 03:17:41;;;;;;;3.85;1.00;;;15.60;99.90;;;;;;12487623;28;20505;-34
2022/07/05 03:23:43;;;;;;;5.22;1.02;;;15.60;99.90;;;;;;12476981;28;20401;-34
2022/07/05 03:29:44;;;;;;;3.35;1.10;;;15.50;99.90;;;;;;12470809;28;20097;-34
2022/07/05 03:35:46;;;;;;;3.67;1.13;;;15.40;99.90;;;;;;12483489;28;20042;-38
2022/07/05 03:41:48;;;;;;;4.43;1.20;;;15.40;99.90;;;;;;12491140;28;20088;-34
2022/07/05 03:47:50;;;;;;;4.45;1.10;;;15.60;99.90;;;;;;12490561;28;20405;-34
2022/07/05 03:53:52;;;;;;;4.75;1.13;;;15.60;99.90;;;;;;12488669;28;20045;-38
2022/07/05 03:59:53;;;;;;;2.55;1.10;;;15.70;99.90;;;;;;12488466;28;20041;-34
2022/07/05 04:05:55;;;;;;;2.90;1.38;;;15.60;99.90;;;;;;12481739;28;20049;-38
2022/07/05 04:11:57;;;;;;;6.30;1.63;;;15.70;99.90;;;;;;12488633;28;20489;-38
2022/07/05 04:17:59;;;;;;;3.13;1.40;;;15.80;99.90;;;;;;12483445;28;20501;-38
2022/07/05 04:24:01;;;;;;;3.30;1.20;;;15.90;99.90;;;;;;12484858;28;20045;-38
2022/07/05 04:30:03;;;;;;;3.33;1.50;;;15.90;99.90;;;;;;12477002;28;20041;-38
2022/07/05 04:36:05;;;;;;;2.33;1.40;;;16.00;99.90;;;;;;12481940;28;20046;-38
2022/07/05 04:42:07;;;;;;;3.40;1.33;;;16.00;99.90;;;;;;12482263;28;20128;-38
2022/07/05 04:48:09;;;;;;;3.28;1.10;;;16.00;99.90;;;;;;12476155;28;20500;-34
2022/07/05 04:54:11;;;;;;;4.50;1.23;;;16.00;99.90;;;;;;12492075;28;20507;-38
2022/07/05 05:00:14;;;;;;;3.17;1.58;;;16.00;99.90;;;;;;12487940;28;20489;-35
2022/07/05 05:06:16;;;;;;;5.07;1.40;;;16.00;99.90;;;;;;12490425;28;20049;-35
2022/07/05 05:12:18;;;;;;;4.18;1.60;;;16.10;99.90;;;;;;12483618;28;20536;-35
2022/07/05 05:18:24;;;;;;;3.28;1.60;;;16.10;99.90;;;;;;12486008;28;20140;-35
2022/07/05 05:24:26;;;;;;;5.35;1.50;;;16.10;99.90;;;;;;12491853;28;20037;-35
2022/07/05 05:30:28;;;;;;;3.15;1.30;;;16.10;99.90;;;;;;12479661;28;20046;-38
2022/07/05 05:36:29;;;;;;;6.75;1.42;;;16.20;99.90;;;;;;12486030;28;20072;-38
2022/07/05 05:42:31;;;;;;;2.92;1.13;;;16.10;99.90;;;;;;12475417;28;20176;-38
2022/07/05 05:48:33;;;;;;;3.08;1.30;;;16.10;99.90;;;;;;12477760;28;20125;-38
2022/07/05 05:54:35;;;;;;;6.22;1.30;;;16.30;99.90;;;;;;12476313;28;20076;-35
2022/07/05 06:00:37;;;;;;;3.83;1.10;;;16.30;99.90;;;;;;12462851;28;20187;-35
2022/07/05 06:06:39;;;;;;;1.65;1.10;;;16.20;99.90;;;;;;12480522;28;20451;-38
2022/07/05 06:12:41;;;;;;;5.05;1.30;;;16.40;99.90;;;;;;12489210;28;20140;-38
2022/07/05 06:18:43;;;;;;;4.30;1.38;;;16.40;99.90;;;;;;12487500;28;20535;-38
2022/07/05 06:24:45;;;;;;;1.52;0.93;;;16.50;99.90;;;;;;12477963;28;20060;-38
2022/07/05 06:31:07;;;;;;;3.80;1.20;;;16.60;99.90;;;;;;12474801;28;20497;-38
2022/07/05 06:37:10;;;;;;;4.90;1.03;;;16.80;99.90;;;;;;12464544;28;20049;-35
2022/07/05 06:43:13;;;;;;;2.03;1.08;;;16.90;99.90;;;;;;12488726;28;20412;-35
2022/07/05 06:49:15;;;;;;;3.97;1.23;;;16.90;99.90;;;;;;12476706;28;20430;-38
2022/07/05 06:55:17;;;;;;;6.43;1.20;;;16.90;99.90;;;;;;12486941;28;20046;-39
2022/07/05 07:01:19;;;;;;;3.83;1.20;;;16.90;99.90;;;;;;12486457;28;20443;-38
2022/07/05 07:13:43;;;;;;;3.97;1.17;;;17.20;99.90;;;;;;12490600;28;20328;-35
2022/07/05 07:19:44;;;;;;;2.00;0.90;;;17.30;99.90;;;;;;12485820;28;20183;-38
2022/07/05 07:25:48;;;;;;;4.13;1.17;;;17.50;99.90;;;;;;12489959;28;20155;-38
2022/07/05 07:31:50;;;;;;;3.90;1.00;;;17.60;99.90;;;;;;12483657;28;20076;-38
2022/07/05 07:37:52;;;;;;;5.32;0.95;;;17.70;99.90;;;;;;12490250;28;20045;-38
2022/07/05 07:43:55;;;;;;;4.53;1.10;;;17.70;99.90;;;;;;12488576;28;20511;-38
2022/07/05 07:49:57;;;;;;;2.20;0.80;;;17.70;99.90;;;;;;12490064;28;20045;-38
2022/07/05 07:55:59;;;;;;;2.85;0.55;;;17.60;99.90;;;;;;12486424;28;20037;-38
2022/07/05 08:02:01;;;;;;;4.13;0.70;;;17.70;99.90;;;;;;12496035;28;20128;-35
2022/07/05 08:08:03;;;;;;;2.75;0.70;;;17.90;99.90;;;;;;12489556;28;20609;-35
2022/07/05 08:14:05;;;;;;;1.55;0.60;;;18.00;99.90;;;;;;12497541;28;20095;-36
2022/07/05 08:26:30;;;;;;;1.52;0.60;;;18.00;99.90;;;;;;12456429;28;20041;-35
2022/07/05 08:32:32;;;;;;;2.47;0.60;;;18.10;99.90;;;;;;12496727;28;20045;-35
2022/07/05 08:38:36;;;;;;;1.15;0.50;;;18.30;99.90;;;;;;12498257;28;20045;-35
2022/07/05 08:44:41;;;;;;;2.30;0.68;;;18.40;99.90;;;;;;12492866;28;20045;-35
2022/07/05 08:50:48;;;;;;;2.88;0.57;;;18.40;99.90;;;;;;12484318;28;20049;-39
2022/07/05 08:56:53;;;;;;;1.90;0.80;;;18.40;99.90;;;;;;12490558;28;20409;-39
2022/07/05 09:03:18;;;;;;;2.60;0.60;;;18.60;99.90;;;;;;12491760;28;20108;-36
2022/07/05 09:09:21;;;;;;;2.13;0.98;;;18.70;99.90;;;;;;12496984;28;20061;-35
2022/07/05 09:15:24;;;;;;;1.83;0.70;;;18.90;99.90;;;;;;12489123;28;20056;-35
2022/07/05 09:21:27;;;;;;;1.55;0.75;;;19.10;99.90;;;;;;12487033;28;20107;-38
2022/07/05 09:27:32;;;;;;;;;;;19.00;99.90;;;;;;12475195;28;20118;-35
2022/07/05 09:33:50;;;;;;;3.47;0.70;;;19.20;99.90;;;;;;12494663;28;20040;-39
2022/07/05 09:39:53;;;;;;;1.65;0.80;;;19.50;99.90;;;;;;12492635;28;20405;-38
2022/07/05 09:46:02;;;;;;;3.13;0.80;;;19.30;99.90;;;;;;12474286;28;20567;-38
2022/07/05 09:52:04;;;;;;;2.15;0.70;;;19.00;99.90;;;;;;12491985;28;20504;-35
2022/07/05 09:58:07;;;;;;;2.03;0.68;;;18.90;99.90;;;;;;12475620;28;20049;-39
2022/07/05 10:04:09;;;;;;;0.90;0.50;;;19.40;99.90;;;;;;12473847;28;20562;-35
2022/07/05 10:10:12;;;;;;;4.55;0.80;;;19.10;99.90;;;;;;12485082;28;20449;-38
2022/07/05 10:16:22;;;;;;;2.38;0.75;;;19.60;99.90;;;;;;12488215;28;20053;-35
2022/07/05 10:22:26;;;;;;;1.58;0.50;;;20.00;99.90;;;;;;12477216;28;20045;-35
2022/07/05 10:28:29;;;;;;;2.40;0.60;;;19.80;99.90;;;;;;12487596;28;20049;-38
2022/07/05 10:34:33;;;;;;;3.90;0.73;;;19.70;99.90;;;;;;12482595;28;20183;-38
2022/07/05 10:41:00;;;;;;;2.38;0.50;;;19.80;99.90;;;;;;12488559;28;20080;-38
2022/07/05 10:47:10;;;;;;;2.83;0.68;;;19.70;99.90;;;;;;12454484;28;20049;-38
2022/07/05 10:53:12;;;;;;;3.92;0.70;;;19.50;99.90;;;;;;12477036;28;20549;-41
2022/07/05 10:59:14;;;;;;;5.00;0.80;;;19.60;99.90;;;;;;12478634;28;20091;-35
2022/07/05 11:05:16;;;;;;;1.55;0.70;;;19.70;99.90;;;;;;12478855;28;20429;-38
2022/07/05 11:11:27;;;;;;;4.95;0.73;;;20.00;99.90;;;;;;12489059;28;20140;-35
2022/07/05 11:17:34;;;;;;;6.72;1.00;;;20.50;99.90;;;;;;12467018;28;20057;-35
2022/07/05 11:24:18;;;;;;;2.80;0.60;;;21.20;99.90;;;;;;12489472;28;20046;-38
2022/07/05 11:30:23;;;;;;;1.83;0.80;;;20.90;99.90;;;;;;12497012;28;20140;-35
2022/07/05 11:36:26;;;;;;;2.78;0.52;;;20.40;99.90;;;;;;12490567;28;20446;-39
2022/07/05 11:42:28;;;;;;;2.17;0.70;;;20.00;99.90;;;;;;12502571;28;20037;-35
2022/07/05 11:48:30;;;;;;;1.40;0.60;;;20.20;99.90;;;;;;12489182;28;20056;-35
2022/07/05 11:54:33;;;;;;;1.33;0.60;;;20.30;99.90;;;;;;12485837;28;20509;-40
2022/07/05 12:00:36;;;;;;;;;;;20.00;99.90;;;;;;12487840;28;20258;-39
2022/07/05 12:06:42;;;;;;;1.92;0.60;;;19.90;99.90;;;;;;12504455;28;19921;-38
2022/07/05 12:12:44;;;;;;;2.20;0.70;;;19.90;99.90;;;;;;12485581;28;20529;-38
2022/07/05 12:19:00;;;;;;;1.65;0.70;;;20.20;99.90;;;;;;12468645;28;20175;-39
2022/07/05 12:25:04;;;;;;;5.13;0.70;;;20.50;99.90;;;;;;12496502;28;20049;-38
2022/07/05 12:31:21;;;;;;;2.03;0.70;;;21.00;99.90;;;;;;12498667;28;20425;-39
2022/07/05 12:37:24;;;;;;;2.67;0.70;;;21.20;99.90;;;;;;12492547;28;20507;-38
2022/07/05 12:43:27;;;;;;;1.63;0.70;;;21.30;99.90;;;;;;12495532;28;20083;-38
2022/07/05 12:49:29;;;;;;;3.78;0.60;;;21.60;99.90;;;;;;12495972;28;20115;-39
2022/07/05 13:01:56;;;;;;;3.17;0.75;;;21.70;99.90;;;;;;12484631;28;20136;-35
2022/07/05 13:07:58;;;;;;;3.03;0.70;;;21.90;99.90;;;;;;12494125;28;20572;-38
2022/07/05 13:14:00;;;;;;;2.75;0.70;;;22.10;99.90;;;;;;12460661;28;20046;-38
2022/07/05 13:20:03;;;;;;;4.50;0.70;;;21.40;99.90;;;;;;12477892;28;20045;-35
2022/07/05 13:26:06;;;;;;;;;;;21.20;99.90;;;;;;12489363;28;20076;-39
2022/07/05 13:32:08;;;;;;;3.58;0.70;;;21.20;99.90;;;;;;12497109;28;19943;-40
2022/07/05 13:38:10;;;;;;;2.03;0.85;;;21.60;99.90;;;;;;12494048;28;20045;-37
2022/07/05 13:44:13;;;;;;;2.50;0.80;;;21.50;99.90;;;;;;12490658;28;20553;-35
2022/07/05 13:50:31;;;;;;;3.15;0.73;;;21.30;99.90;;;;;;12485013;28;20049;-39
2022/07/05 13:56:35;;;;;;;3.03;0.70;;;21.20;99.90;;;;;;12487703;28;20169;-40
2022/07/05 14:02:37;;;;;;;4.43;0.70;;;21.30;99.90;;;;;;12489646;28;20128;-39
2022/07/05 14:08:42;;;;;;;2.03;0.70;;;21.30;99.90;;;;;;12487304;28;20445;-35
2022/07/05 14:14:44;;;;;;;1.73;0.50;;;21.20;99.90;;;;;;12484951;28;20493;-38
2022/07/05 14:20:47;;;;;;;1.15;0.52;;;21.60;99.90;;;;;;12483909;28;20049;-35
2022/07/05 14:26:49;;;;;;;2.13;0.60;;;22.20;99.90;;;;;;12492512;28;20543;-39
2022/07/05 14:32:51;;;;;;;4.65;0.80;;;22.40;99.90;;;;;;12481288;28;20046;-39
2022/07/05 14:38:53;;;;;;;6.05;0.80;;;22.60;99.90;;;;;;12489373;28;20103;-35
2022/07/05 14:44:54;;;;;;;2.55;0.60;;;22.70;99.90;;;;;;12478552;28;20136;-38
2022/07/05 14:50:56;;;;;;;2.20;0.60;;;22.80;99.90;;;;;;12475782;28;20057;-35
2022/07/05 14:57:01;;;;;;;1.98;0.65;;;23.00;99.90;;;;;;12473709;28;20141;-36
2022/07/05 15:03:03;;;;;;;1.60;0.50;;;22.80;99.90;;;;;;12493776;28;20128;-35
2022/07/05 15:09:05;;;;;;;3.75;0.88;;;22.20;99.90;;;;;;12503571;28;20053;-35
2022/07/05 15:15:07;;;;;;;2.72;0.73;;;21.70;99.90;;;;;;12469971;28;20054;-39
2022/07/05 15:21:10;;;;;;;1.77;0.67;;;21.90;99.90;;;;;;12484674;28;20053;-39
2022/07/05 15:27:12;;;;;;;1.88;0.82;;;22.20;99.90;;;;;;12486401;28;20053;-38
2022/07/05 15:33:27;;;;;;;2.78;0.77;;;21.90;99.90;;;;;;12491804;28;20085;-39
2022/07/05 15:39:30;;;;;;;1.48;0.57;;;21.70;99.90;;;;;;12470911;28;20049;-39
2022/07/05 15:45:32;;;;;;;1.67;0.50;;;21.70;99.90;;;;;;12493242;28;20052;-38
2022/07/05 15:51:33;;;;;;;1.58;0.50;;;22.20;99.90;;;;;;12497464;28;20159;-39
2022/07/05 15:57:35;;;;;;;1.85;0.60;;;22.40;99.90;;;;;;12491478;28;20176;-35
2022/07/05 16:03:37;;;;;;;3.20;0.40;;;22.60;99.90;;;;;;12497101;28;20501;-38
2022/07/05 16:09:40;;;;;;;5.05;0.70;;;22.50;99.90;;;;;;12480717;28;20121;-35
2022/07/05 16:22:03;;;;;;;3.05;0.60;;;22.10;99.90;;;;;;12485115;28;20050;-35
2022/07/05 16:28:05;;;;;;;4.30;1.00;;;21.80;99.90;;;;;;12492253;28;20171;-35
2022/07/05 16:34:09;;;;;;;3.72;0.80;;;21.30;99.90;;;;;;12490035;28;20058;-36
2022/07/05 16:40:11;;;;;;;3.78;0.80;;;21.10;99.90;;;;;;12473160;28;20140;-38
2022/07/05 16:46:15;;;;;;;4.17;1.00;;;20.90;99.90;;;;;;12493251;28;20054;-35
2022/07/05 16:52:18;;;;;;;3.22;0.93;;;21.00;99.90;;;;;;12489745;28;20056;-35
2022/07/05 16:58:20;;;;;;;1.70;0.80;;;20.90;99.90;;;;;;12496181;28;20524;-38
2022/07/05 17:04:22;;;;;;;4.63;0.90;;;20.70;99.90;;;;;;12497233;28;20458;-38
2022/07/05 17:10:24;;;;;;;2.50;0.93;;;21.00;99.90;;;;;;12491214;28;20413;-35
2022/07/05 17:16:26;;;;;;;5.47;1.17;;;21.10;99.90;;;;;;12495432;28;20421;-39
2022/07/05 17:22:29;;;;;;;2.97;0.93;;;20.80;99.90;;;;;;12492398;28;20048;-41
2022/07/05 17:28:31;;;;;;;4.07;0.90;;;20.50;99.90;;;;;;12475768;28;20038;-35
2022/07/05 17:34:33;;;;;;;3.75;1.02;;;20.40;99.90;;;;;;12496296;28;20521;-36
2022/07/05 17:40:35;;;;;;;3.75;0.80;;;20.30;99.90;;;;;;12493785;28;20080;-38
2022/07/05 17:46:37;;;;;;;5.80;1.10;;;20.40;99.90;;;;;;12491834;28;20052;-39
2022/07/05 17:52:39;;;;;;;2.65;0.77;;;20.80;99.90;;;;;;12488483;28;20542;-35
2022/07/05 17:58:44;;;;;;;4.35;1.20;;;20.80;99.90;;;;;;12492367;28;20060;-36
2022/07/05 18:04:46;;;;;;;6.38;1.33;;;20.50;99.90;;;;;;12493245;28;20136;-39
2022/07/05 18:10:48;;;;;;;4.75;0.90;;;20.20;99.90;;;;;;12494829;28;20052;-39
2022/07/05 18:16:50;;;;;;;2.90;0.70;;;20.00;99.90;;;;;;12495000;28;20096;-38
2022/07/05 18:22:53;;;;;;;4.85;1.02;;;19.80;99.90;;;;;;12493468;28;20053;-39
2022/07/05 18:28:55;;;;;;;4.35;0.90;;;19.80;99.90;;;;;;12495023;28;20049;-39
2022/07/05 18:34:57;;;;;;;4.15;0.90;;;19.70;99.90;;;;;;12485947;28;20140;-38
2022/07/05 18:40:59;;;;;;;2.65;0.68;;;19.60;99.90;;;;;;12492491;28;20073;-35
2022/07/05 18:47:01;;;;;;;4.43;1.15;;;19.60;99.90;;;;;;12497821;28;20064;-38
2022/07/05 18:53:02;;;;;;;4.15;0.60;;;19.50;99.90;;;;;;12493548;28;20049;-35
2022/07/05 18:59:05;;;;;;;3.20;0.70;;;19.30;99.90;;;;;;12472910;28;20527;-35
2022/07/05 19:05:07;;;;;;;6.77;1.03;;;19.40;99.90;;;;;;12477204;28;20068;-39
2022/07/05 19:17:30;;;;;;;4.90;1.02;;;19.30;99.90;;;;;;12479289;28;20101;-38
2022/07/05 19:23:32;;;;;;;4.30;0.90;;;19.10;99.90;;;;;;12475176;28;20042;-35
2022/07/05 19:29:34;;;;;;;2.17;0.90;;;19.10;99.90;;;;;;12483520;28;20548;-38
2022/07/05 19:35:35;;;;;;;5.85;0.82;;;18.90;99.90;;;;;;12482282;28;20533;-35
2022/07/05 19:41:37;;;;;;;3.55;0.88;;;19.00;99.90;;;;;;12483270;28;20125;-35
2022/07/05 19:47:39;;;;;;;5.30;0.85;;;18.80;99.90;;;;;;12475699;28;20087;-38
2022/07/05 19:53:41;;;;;;;3.40;0.63;;;18.80;99.90;;;;;;12474212;28;20052;-39
2022/07/05 19:59:43;;;;;;;3.78;1.00;;;18.60;99.90;;;;;;12484737;28;20046;-35
2022/07/05 20:05:44;;;;;;;2.88;0.80;;;18.60;99.90;;;;;;12477245;28;20493;-35
2022/07/05 20:11:47;;;;;;;3.55;1.02;;;18.60;99.90;;;;;;12483573;28;20098;-38
2022/07/05 20:18:05;;;;;;;5.88;0.80;;;18.50;99.90;;;;;;12481411;28;20064;-35
2022/07/05 20:24:07;;;;;;;4.28;1.00;;;18.40;99.90;;;;;;12483100;28;20516;-35
2022/07/05 20:30:09;;;;;;;6.45;0.82;;;18.50;99.90;;;;;;12481220;28;20045;-35
2022/07/05 20:36:11;;;;;;;3.47;0.85;;;18.50;99.90;;;;;;12489841;28;20087;-36
2022/07/05 20:42:12;;;;;;;2.55;0.80;;;18.50;99.90;;;;;;12480982;28;20385;-35
2022/07/05 20:48:14;;;;;;;5.40;1.00;;;18.40;99.90;;;;;;12476446;28;20046;-35
2022/07/05 20:54:16;;;;;;;2.67;0.60;;;18.30;99.90;;;;;;12472349;28;20118;-35
2022/07/05 21:00:20;;;;;;;1.73;0.70;;;18.20;99.90;;;;;;12486691;28;20049;-35
2022/07/05 21:06:21;;;;;;;2.95;1.05;;;18.00;99.90;;;;;;12480603;28;20045;-35
2022/07/05 21:12:23;;;;;;;3.65;1.08;;;17.90;99.90;;;;;;12485134;28;20049;-38
2022/07/05 21:18:25;;;;;;;3.30;1.00;;;17.70;99.90;;;;;;12482659;28;20616;-38
2022/07/05 21:24:33;;;;;;;2.60;0.73;;;17.60;99.90;;;;;;12478020;28;20053;-38
2022/07/05 21:30:35;;;;;;;4.65;0.88;;;17.40;99.90;;;;;;12478926;28;20398;-38
2022/07/05 21:36:36;;;;;;;3.53;0.77;;;17.40;99.90;;;;;;12479433;28;20046;-35
2022/07/05 21:42:38;;;;;;;10.18;1.75;;;17.30;99.90;;;;;;12479531;28;20552;-34
2022/07/05 21:48:41;;;;;;;5.30;0.90;;;17.30;99.90;;;;;;12485827;28;20050;-35
2022/07/05 21:54:42;;;;;;;6.03;1.15;;;17.30;99.90;;;;;;12470229;28;20458;-35
2022/07/05 22:07:07;;;;;;;1.90;0.75;;;17.20;99.90;;;;;;12469896;28;20501;-35
2022/07/05 22:13:08;;;;;;;;;;;17.10;99.90;;;;;;12487745;28;20053;-35
2022/07/05 22:19:10;;;;;;;3.30;0.90;;;17.10;99.90;;;;;;12473672;28;19974;-38
2022/07/05 22:25:12;;;;;;;3.85;0.85;;;17.10;99.90;;;;;;12478550;28;20046;-36
2022/07/05 22:31:14;;;;;;;3.20;0.90;;;17.00;99.90;;;;;;12479577;28;20494;-35
2022/07/05 22:37:16;;;;;;;3.53;0.85;;;17.00;99.90;;;;;;12479682;28;20135;-34
2022/07/05 22:43:17;;;;;;;3.60;1.05;;;16.80;99.90;;;;;;12481066;28;20049;-38
2022/07/05 22:49:19;;;;;;;2.45;0.80;;;16.80;99.90;;;;;;12478275;28;20053;-35
2022/07/05 22:55:21;;;;;;;2.78;0.93;;;16.80;99.90;;;;;;12469210;28;20045;-38
2022/07/05 23:01:26;;;;;;;5.47;0.90;;;16.80;99.90;;;;;;12481919;28;20144;-35
2022/07/05 23:07:28;;;;;;;5.53;1.13;;;16.70;99.90;;;;;;12467063;28;20053;-34
2022/07/05 23:13:30;;;;;;;5.40;1.20;;;16.70;99.90;;;;;;12473869;28;20076;-35
2022/07/05 23:19:32;;;;;;;5.97;1.20;;;16.60;99.90;;;;;;12474566;28;20086;-34
2022/07/05 23:25:33;;;;;;;5.13;1.13;;;16.60;99.90;;;;;;12474845;28;20038;-37
2022/07/05 23:31:35;;;;;;;3.00;1.00;;;16.50;99.90;;;;;;12489461;28;20538;-34
2022/07/05 23:37:37;;;;;;;5.00;1.10;;;16.60;99.90;;;;;;12484855;28;20481;-38
2022/07/05 23:43:39;;;;;;;3.47;0.90;;;16.60;99.90;;;;;;12487360;28;20124;-34
2022/07/05 23:49:41;;;;;;;4.10;1.02;;;16.60;99.90;;;;;;12475991;28;20048;-38
2022/07/05 23:55:43;;;;;;;4.38;0.93;;;16.60;99.90;;;;;;12483599;28;20497;-35
